Time;durP1;ratioP1;P1;durP2;ratioP2;P2;SDS_P1;SDS_P2;PMS_P1;PMS_P2;Temp;Humidity;BMP_temperature;BMP_pressure;BME280_temperature;BME280_humidity;BME280_pressure;Samples;Min_cycle;Max_cycle;Signal;HPM_P1;HPM_P2
2022/03/12 00:00:30;;;;;;;3.08;2.22;;;;;;;;;;5060009;28;20380;-57
2022/03/12 00:02:57;;;;;;;5.75;1.90;;;;;;;;;;5074243;28;20103;-58
2022/03/12 00:05:25;;;;;;;3.83;2.20;;;;;;;;;;5073915;28;20024;-56
2022/03/12 00:07:51;;;;;;;3.25;2.00;;;;;;;;;;5074089;28;20025;-58
2022/03/12 00:10:21;;;;;;;2.38;1.83;;;;;;;;;;5084570;28;20083;-58
2022/03/12 00:12:47;;;;;;;4.15;2.13;;;;;;;;;;5086647;28;20076;-58
2022/03/12 00:15:14;;;;;;;3.55;2.20;;;;;;;;;;5093716;28;20032;-58
2022/03/12 00:17:45;;;;;;;2.33;1.73;;;;;;;;;;5082217;28;20081;-57
2022/03/12 00:20:12;;;;;;;3.57;2.10;;;;;;;;;;5083235;28;20149;-58
2022/03/12 00:22:43;;;;;;;1.95;1.67;;;;;;;;;;5079781;28;20254;-58
2022/03/12 00:25:10;;;;;;;5.15;2.10;;;;;;;;;;5065896;28;20477;-58
2022/03/12 00:27:39;;;;;;;2.60;2.00;;;;;;;;;;5061559;28;20036;-58
2022/03/12 00:30:05;;;;;;;2.42;1.88;;;;;;;;;;5064225;28;20552;-59
2022/03/12 00:32:35;;;;;;;3.05;1.90;;;;;;;;;;5082126;28;20035;-58
2022/03/12 00:35:02;;;;;;;2.45;1.80;;;;;;;;;;5081825;28;20358;-58
2022/03/12 00:37:28;;;;;;;4.30;2.13;;;;;;;;;;5080344;28;20017;-57
2022/03/12 00:39:55;;;;;;;3.15;2.30;;;;;;;;;;5081960;28;20029;-58
2022/03/12 00:42:20;;;;;;;3.75;2.28;;;;;;;;;;5078536;28;20472;-58
2022/03/12 00:44:46;;;;;;;2.72;2.08;;;;;;;;;;5080972;28;20034;-57
2022/03/12 00:47:12;;;;;;;4.35;2.20;;;;;;;;;;5081817;28;20381;-57
2022/03/12 00:49:38;;;;;;;3.38;1.90;;;;;;;;;;5079818;28;20044;-57
2022/03/12 00:52:05;;;;;;;2.92;2.10;;;;;;;;;;5082293;28;20016;-58
2022/03/12 00:54:31;;;;;;;3.45;2.15;;;;;;;;;;5081446;28;20075;-55
2022/03/12 00:56:57;;;;;;;3.28;2.20;;;;;;;;;;5081320;28;20094;-58
2022/03/12 00:59:23;;;;;;;3.63;2.25;;;;;;;;;;5079468;28;20059;-56
2022/03/12 01:01:50;;;;;;;3.10;2.25;;;;;;;;;;5082703;28;20027;-57
2022/03/12 01:04:16;;;;;;;3.88;2.40;;;;;;;;;;5081264;28;20024;-58
2022/03/12 01:06:42;;;;;;;3.78;2.33;;;;;;;;;;5081931;28;20024;-57
2022/03/12 01:09:10;;;;;;;3.33;2.25;;;;;;;;;;5079714;28;20415;-58
2022/03/12 01:11:38;;;;;;;3.22;2.45;;;;;;;;;;5081491;28;20028;-57
2022/03/12 01:14:04;;;;;;;4.05;1.98;;;;;;;;;;5078892;28;20016;-57
2022/03/12 01:16:30;;;;;;;4.13;2.33;;;;;;;;;;5080024;28;20097;-58
2022/03/12 01:18:56;;;;;;;3.70;2.00;;;;;;;;;;5073201;28;20025;-57
2022/03/12 01:21:22;;;;;;;3.75;2.25;;;;;;;;;;5072401;28;20029;-55
2022/03/12 01:23:49;;;;;;;4.13;2.15;;;;;;;;;;5072308;28;20032;-58
2022/03/12 01:26:15;;;;;;;2.50;2.13;;;;;;;;;;5054584;28;20056;-57
2022/03/12 01:28:42;;;;;;;2.30;2.10;;;;;;;;;;5085812;28;20032;-57
2022/03/12 01:31:08;;;;;;;5.30;2.08;;;;;;;;;;5092508;28;20019;-58
2022/03/12 01:33:34;;;;;;;2.92;2.28;;;;;;;;;;5092131;28;20040;-58
2022/03/12 01:36:00;;;;;;;3.50;2.30;;;;;;;;;;5081799;28;20025;-58
2022/03/12 01:38:33;;;;;;;3.67;2.47;;;;;;;;;;5083534;28;20021;-56
2022/03/12 01:41:03;;;;;;;5.35;2.13;;;;;;;;;;5092414;28;20479;-58
2022/03/12 01:43:32;;;;;;;3.45;2.08;;;;;;;;;;5089344;28;20028;-57
2022/03/12 01:46:01;;;;;;;5.32;2.20;;;;;;;;;;5072188;28;20104;-58
2022/03/12 01:48:28;;;;;;;3.17;2.33;;;;;;;;;;5071608;28;20017;-57
2022/03/12 01:50:54;;;;;;;2.88;1.98;;;;;;;;;;5071034;28;20024;-58
2022/03/12 01:53:20;;;;;;;2.63;1.75;;;;;;;;;;5092637;28;20038;-58
2022/03/12 01:55:46;;;;;;;2.65;1.88;;;;;;;;;;5080849;28;20660;-58
2022/03/12 01:58:13;;;;;;;3.70;2.55;;;;;;;;;;5072025;28;20107;-58
2022/03/12 02:00:43;;;;;;;3.72;2.25;;;;;;;;;;5071627;28;20032;-57
2022/03/12 02:03:09;;;;;;;3.72;2.38;;;;;;;;;;5091232;28;20081;-58
2022/03/12 02:05:35;;;;;;;3.05;2.20;;;;;;;;;;5091770;28;20031;-58
2022/03/12 02:08:02;;;;;;;2.80;2.35;;;;;;;;;;5091074;28;20020;-57
2022/03/12 02:10:28;;;;;;;2.75;1.85;;;;;;;;;;5083128;28;20500;-55
2022/03/12 02:12:54;;;;;;;3.53;1.92;;;;;;;;;;5071488;28;20036;-58
2022/03/12 02:15:22;;;;;;;6.22;2.58;;;;;;;;;;5071768;28;20447;-57
2022/03/12 02:17:50;;;;;;;2.70;2.20;;;;;;;;;;5085414;28;20082;-56
2022/03/12 02:20:17;;;;;;;3.97;2.30;;;;;;;;;;5091983;28;20048;-58
2022/03/12 02:22:45;;;;;;;2.85;1.90;;;;;;;;;;5090942;28;20473;-58
2022/03/12 02:25:11;;;;;;;2.85;1.95;;;;;;;;;;5092034;28;20027;-58
2022/03/12 02:27:38;;;;;;;2.55;1.90;;;;;;;;;;5090455;28;20024;-58
2022/03/12 02:30:08;;;;;;;3.00;2.20;;;;;;;;;;5074129;28;20113;-58
2022/03/12 02:32:35;;;;;;;2.97;2.03;;;;;;;;;;5071022;28;20063;-58
2022/03/12 02:35:01;;;;;;;2.80;2.20;;;;;;;;;;5054098;28;20408;-58
2022/03/12 02:37:30;;;;;;;3.72;2.58;;;;;;;;;;5071303;28;20024;-56
2022/03/12 02:40:00;;;;;;;2.97;2.20;;;;;;;;;;5072130;28;20031;-58
2022/03/12 02:42:28;;;;;;;3.38;2.13;;;;;;;;;;5071239;28;20129;-55
2022/03/12 02:44:54;;;;;;;7.70;2.80;;;;;;;;;;5084727;28;20492;-58
2022/03/12 02:47:22;;;;;;;4.72;2.45;;;;;;;;;;5091150;28;20029;-57
2022/03/12 02:49:53;;;;;;;4.43;2.35;;;;;;;;;;5073023;28;20077;-57
2022/03/12 02:52:19;;;;;;;3.67;2.60;;;;;;;;;;5079277;28;20470;-58
2022/03/12 02:54:46;;;;;;;3.15;2.10;;;;;;;;;;5070567;28;20572;-57
2022/03/12 02:57:12;;;;;;;3.53;2.50;;;;;;;;;;5085497;28;20024;-58
2022/03/12 02:59:43;;;;;;;2.92;2.28;;;;;;;;;;5090824;28;20458;-57
2022/03/12 03:02:10;;;;;;;3.17;2.58;;;;;;;;;;5091642;28;20039;-57
2022/03/12 03:04:37;;;;;;;3.47;2.20;;;;;;;;;;5091096;28;20077;-57
2022/03/12 03:07:04;;;;;;;3.30;2.08;;;;;;;;;;5057453;28;20411;-57
2022/03/12 03:09:30;;;;;;;4.50;2.58;;;;;;;;;;5070580;28;20028;-55
2022/03/12 03:11:57;;;;;;;3.58;2.90;;;;;;;;;;5071340;28;20416;-58
2022/03/12 03:14:26;;;;;;;3.13;1.98;;;;;;;;;;5071183;28;20075;-58
2022/03/12 03:16:52;;;;;;;2.70;2.17;;;;;;;;;;5084346;28;20040;-58
2022/03/12 03:19:18;;;;;;;3.55;2.25;;;;;;;;;;5091693;28;20119;-60
2022/03/12 03:21:44;;;;;;;2.75;2.13;;;;;;;;;;5092825;28;20115;-57
2022/03/12 03:24:10;;;;;;;3.08;2.00;;;;;;;;;;5086614;28;20029;-58
2022/03/12 03:26:39;;;;;;;2.95;2.20;;;;;;;;;;5074050;28;20028;-58
2022/03/12 03:29:06;;;;;;;3.08;2.20;;;;;;;;;;5071148;28;20103;-57
2022/03/12 03:31:31;;;;;;;2.35;2.05;;;;;;;;;;5094281;28;20024;-56
2022/03/12 03:33:58;;;;;;;3.28;2.53;;;;;;;;;;5095448;28;20021;-57
2022/03/12 03:36:24;;;;;;;2.75;1.70;;;;;;;;;;5094746;28;20385;-57
2022/03/12 03:38:50;;;;;;;3.95;2.50;;;;;;;;;;5094308;28;20020;-57
2022/03/12 03:41:17;;;;;;;2.80;2.00;;;;;;;;;;5080515;28;20036;-57
2022/03/12 03:43:45;;;;;;;5.40;2.08;;;;;;;;;;5077407;28;20055;-58
2022/03/12 03:46:12;;;;;;;4.32;2.30;;;;;;;;;;5082257;28;20033;-57
2022/03/12 03:48:39;;;;;;;3.42;2.42;;;;;;;;;;5074078;28;20486;-57
2022/03/12 03:51:05;;;;;;;2.88;1.88;;;;;;;;;;5075806;28;20029;-57
2022/03/12 03:53:31;;;;;;;2.90;2.40;;;;;;;;;;5094155;28;20075;-56
2022/03/12 03:55:59;;;;;;;2.90;1.73;;;;;;;;;;5084406;28;20052;-57
2022/03/12 03:58:26;;;;;;;2.65;2.17;;;;;;;;;;5074387;28;20027;-57
2022/03/12 04:00:57;;;;;;;2.55;1.85;;;;;;;;;;5073172;28;20505;-57
2022/03/12 04:03:24;;;;;;;4.00;2.67;;;;;;;;;;5074502;28;20016;-58
2022/03/12 04:05:50;;;;;;;3.25;2.88;;;;;;;;;;5082061;28;20028;-58
2022/03/12 04:08:16;;;;;;;3.53;2.15;;;;;;;;;;5094220;28;20031;-58
2022/03/12 04:10:43;;;;;;;2.70;2.40;;;;;;;;;;5093471;28;20017;-58
2022/03/12 04:13:13;;;;;;;3.72;2.13;;;;;;;;;;5094738;28;20540;-58
2022/03/12 04:15:40;;;;;;;3.53;2.47;;;;;;;;;;5086090;28;20044;-58
2022/03/12 04:18:07;;;;;;;10.43;2.55;;;;;;;;;;5074021;28;20086;-57
2022/03/12 04:20:34;;;;;;;2.85;2.45;;;;;;;;;;5073175;28;20458;-57
2022/03/12 04:23:00;;;;;;;3.28;1.80;;;;;;;;;;5074157;28;20040;-57
2022/03/12 04:25:27;;;;;;;5.40;2.70;;;;;;;;;;5078793;28;20020;-57
2022/03/12 04:27:54;;;;;;;2.85;2.20;;;;;;;;;;5084250;28;20060;-58
2022/03/12 04:30:20;;;;;;;4.05;2.70;;;;;;;;;;5073705;28;20023;-58
2022/03/12 04:32:46;;;;;;;3.80;2.40;;;;;;;;;;5074708;28;20035;-57
2022/03/12 04:35:12;;;;;;;2.75;2.50;;;;;;;;;;5091000;28;20049;-57
2022/03/12 04:37:39;;;;;;;4.00;2.67;;;;;;;;;;5079088;28;20028;-57
2022/03/12 04:40:10;;;;;;;3.10;2.40;;;;;;;;;;5093995;28;20016;-57
2022/03/12 04:42:38;;;;;;;3.08;2.42;;;;;;;;;;5092942;28;20528;-58
2022/03/12 04:45:04;;;;;;;3.38;2.15;;;;;;;;;;5078441;28;20044;-59
2022/03/12 04:47:30;;;;;;;3.05;2.28;;;;;;;;;;5082942;28;20028;-58
2022/03/12 04:49:56;;;;;;;3.58;2.28;;;;;;;;;;5072870;28;20100;-59
2022/03/12 04:52:22;;;;;;;2.80;1.90;;;;;;;;;;5073186;28;20469;-58
2022/03/12 04:54:48;;;;;;;2.90;2.10;;;;;;;;;;5072893;28;20031;-59
2022/03/12 04:57:14;;;;;;;3.88;2.40;;;;;;;;;;5089376;28;20070;-58
2022/03/12 04:59:40;;;;;;;4.05;2.40;;;;;;;;;;5072365;28;20112;-58
2022/03/12 05:02:11;;;;;;;3.45;2.38;;;;;;;;;;5070912;28;20426;-57
2022/03/12 05:04:37;;;;;;;2.90;2.10;;;;;;;;;;5092630;28;20119;-57
2022/03/12 05:07:13;;;;;;;2.58;2.20;;;;;;;;;;5076469;28;20029;-58
2022/03/12 05:09:39;;;;;;;3.60;2.40;;;;;;;;;;5074923;28;20032;-58
2022/03/12 05:12:05;;;;;;;3.95;2.15;;;;;;;;;;5093126;28;20063;-58
2022/03/12 05:14:34;;;;;;;2.92;1.77;;;;;;;;;;5092542;28;20024;-57
2022/03/12 05:17:03;;;;;;;2.75;2.10;;;;;;;;;;5092336;28;20049;-59
2022/03/12 05:19:30;;;;;;;4.30;2.65;;;;;;;;;;5072723;28;20078;-58
2022/03/12 05:21:56;;;;;;;3.03;2.10;;;;;;;;;;5072595;28;20024;-58
2022/03/12 05:24:22;;;;;;;3.05;1.98;;;;;;;;;;5092073;28;20476;-58
2022/03/12 05:26:48;;;;;;;3.38;2.90;;;;;;;;;;5077459;28;20031;-58
2022/03/12 05:29:14;;;;;;;2.88;2.05;;;;;;;;;;5072548;28;20035;-58
2022/03/12 05:31:40;;;;;;;3.50;2.40;;;;;;;;;;5091809;28;20028;-58
2022/03/12 05:34:06;;;;;;;3.00;2.28;;;;;;;;;;5092339;28;20020;-54
2022/03/12 05:36:33;;;;;;;3.53;2.53;;;;;;;;;;5091910;28;20450;-55
2022/03/12 05:38:59;;;;;;;2.63;2.17;;;;;;;;;;5075940;28;20478;-55
2022/03/12 05:41:26;;;;;;;2.95;2.22;;;;;;;;;;5072417;28;20036;-58
2022/03/12 05:43:53;;;;;;;3.03;1.88;;;;;;;;;;5058233;28;20629;-58
2022/03/12 05:46:21;;;;;;;3.55;2.00;;;;;;;;;;5091123;28;20491;-57
2022/03/12 05:48:47;;;;;;;3.60;2.22;;;;;;;;;;5084826;28;20085;-57
2022/03/12 05:51:14;;;;;;;3.80;2.22;;;;;;;;;;5081916;28;20034;-58
2022/03/12 05:53:44;;;;;;;3.20;2.05;;;;;;;;;;5080084;28;20012;-58
2022/03/12 05:56:11;;;;;;;2.95;1.77;;;;;;;;;;5079915;28;20024;-58
2022/03/12 05:58:39;;;;;;;2.60;2.10;;;;;;;;;;5080255;28;20031;-53
2022/03/12 06:01:05;;;;;;;2.38;1.88;;;;;;;;;;5081708;28;20427;-58
2022/03/12 06:03:33;;;;;;;3.58;2.75;;;;;;;;;;5080014;28;20027;-57
2022/03/12 06:05:59;;;;;;;3.45;2.45;;;;;;;;;;5062319;28;20081;-58
2022/03/12 06:08:29;;;;;;;3.47;2.28;;;;;;;;;;5079851;28;20016;-58
2022/03/12 06:10:56;;;;;;;2.75;2.10;;;;;;;;;;5077800;28;20028;-59
2022/03/12 06:13:23;;;;;;;4.63;2.55;;;;;;;;;;5080656;28;20020;-59
2022/03/12 06:15:49;;;;;;;3.80;1.80;;;;;;;;;;5078621;28;20614;-59
2022/03/12 06:18:16;;;;;;;2.47;1.73;;;;;;;;;;5081184;28;20024;-56
2022/03/12 06:20:42;;;;;;;3.50;2.40;;;;;;;;;;5062210;28;20029;-59
2022/03/12 06:23:08;;;;;;;3.88;2.20;;;;;;;;;;5079597;28;20108;-60
2022/03/12 06:25:34;;;;;;;2.97;2.30;;;;;;;;;;5079815;28;20054;-54
2022/03/12 06:28:02;;;;;;;2.55;2.20;;;;;;;;;;5082548;28;20032;-59
2022/03/12 06:30:28;;;;;;;2.35;1.90;;;;;;;;;;5079922;28;20230;-59
2022/03/12 06:32:55;;;;;;;2.67;1.85;;;;;;;;;;5081045;28;20024;-59
2022/03/12 06:35:22;;;;;;;6.10;2.25;;;;;;;;;;5080648;28;20024;-58
2022/03/12 06:37:48;;;;;;;2.80;1.90;;;;;;;;;;5078471;28;20233;-54
2022/03/12 06:40:15;;;;;;;2.10;1.83;;;;;;;;;;5081674;28;20039;-60
2022/03/12 06:42:45;;;;;;;3.45;2.13;;;;;;;;;;5079235;28;20489;-60
2022/03/12 06:45:15;;;;;;;2.75;2.03;;;;;;;;;;5078357;28;20425;-58
2022/03/12 06:47:42;;;;;;;2.50;1.85;;;;;;;;;;5079303;28;20031;-57
2022/03/12 06:50:10;;;;;;;2.58;1.98;;;;;;;;;;5079535;28;20020;-57
2022/03/12 06:52:37;;;;;;;2.83;2.40;;;;;;;;;;5078901;28;20104;-54
2022/03/12 06:55:04;;;;;;;2.55;1.80;;;;;;;;;;5081336;28;20082;-57
2022/03/12 06:57:30;;;;;;;2.83;1.88;;;;;;;;;;5082882;28;20028;-58
2022/03/12 06:59:56;;;;;;;3.60;2.42;;;;;;;;;;5083232;28;20493;-59
2022/03/12 07:02:22;;;;;;;2.60;2.15;;;;;;;;;;5066038;28;20029;-55
2022/03/12 07:04:48;;;;;;;4.65;1.95;;;;;;;;;;5082448;28;20411;-56
2022/03/12 07:07:15;;;;;;;2.75;1.85;;;;;;;;;;5085419;28;20023;-59
2022/03/12 07:09:41;;;;;;;2.25;1.83;;;;;;;;;;5094488;28;20020;-58
2022/03/12 07:12:07;;;;;;;4.07;2.20;;;;;;;;;;5095270;28;20075;-58
2022/03/12 07:14:36;;;;;;;3.30;2.25;;;;;;;;;;5094339;28;20024;-58
2022/03/12 07:17:02;;;;;;;2.90;1.75;;;;;;;;;;5095420;28;20052;-59
2022/03/12 07:19:28;;;;;;;3.75;2.58;;;;;;;;;;5095344;28;20049;-57
2022/03/12 07:21:54;;;;;;;2.75;2.33;;;;;;;;;;5094545;28;20152;-59
2022/03/12 07:24:21;;;;;;;5.72;2.38;;;;;;;;;;5067603;28;20021;-59
2022/03/12 07:26:47;;;;;;;4.03;2.53;;;;;;;;;;5073852;28;20017;-57
2022/03/12 07:29:13;;;;;;;3.67;1.77;;;;;;;;;;5057196;28;20138;-60
2022/03/12 07:31:40;;;;;;;2.95;1.90;;;;;;;;;;5074059;28;20036;-54
2022/03/12 07:34:06;;;;;;;2.20;1.83;;;;;;;;;;5081746;28;20131;-60
2022/03/12 07:36:32;;;;;;;2.53;1.90;;;;;;;;;;5095148;28;20027;-56
2022/03/12 07:38:58;;;;;;;3.50;2.20;;;;;;;;;;5094040;28;20055;-59
2022/03/12 07:41:25;;;;;;;3.97;2.55;;;;;;;;;;5091493;28;20032;-59
2022/03/12 07:43:53;;;;;;;2.38;2.00;;;;;;;;;;5073861;28;20032;-58
2022/03/12 07:46:19;;;;;;;2.28;1.90;;;;;;;;;;5077323;28;20035;-59
2022/03/12 07:48:45;;;;;;;4.57;2.60;;;;;;;;;;5093876;28;20036;-59
2022/03/12 07:51:11;;;;;;;3.40;2.08;;;;;;;;;;5094521;28;20024;-59
2022/03/12 07:53:37;;;;;;;5.32;2.20;;;;;;;;;;5090892;28;20465;-57
2022/03/12 07:56:04;;;;;;;3.05;2.22;;;;;;;;;;5074583;28;20047;-58
2022/03/12 07:58:30;;;;;;;2.55;2.08;;;;;;;;;;5074457;28;20361;-58
2022/03/12 08:00:58;;;;;;;3.35;1.90;;;;;;;;;;5073284;28;20504;-56
2022/03/12 08:03:24;;;;;;;2.40;1.90;;;;;;;;;;5074728;28;20031;-57
2022/03/12 08:05:50;;;;;;;4.18;2.40;;;;;;;;;;5093395;28;20028;-58
2022/03/12 08:08:17;;;;;;;3.40;1.70;;;;;;;;;;5094333;28;20031;-57
2022/03/12 08:13:29;;;;;;;2.28;2.00;;;;;;;;;;5089609;28;20047;-58
2022/03/12 08:15:55;;;;;;;6.18;2.42;;;;;;;;;;5091870;28;20109;-59
2022/03/12 08:18:23;;;;;;;3.08;1.83;;;;;;;;;;5094342;28;20443;-53
2022/03/12 08:20:50;;;;;;;2.67;2.05;;;;;;;;;;5093206;28;20032;-55
2022/03/12 08:23:16;;;;;;;2.70;1.83;;;;;;;;;;5093830;28;20042;-54
2022/03/12 08:25:42;;;;;;;2.95;2.30;;;;;;;;;;5082335;28;20046;-54
2022/03/12 08:28:09;;;;;;;2.85;1.95;;;;;;;;;;5073936;28;20029;-58
2022/03/12 08:30:36;;;;;;;3.20;2.10;;;;;;;;;;5088997;28;20056;-52
2022/03/12 08:33:03;;;;;;;5.95;3.90;;;;;;;;;;5093200;28;20078;-57
2022/03/12 08:35:29;;;;;;;4.55;3.33;;;;;;;;;;5093497;28;20469;-60
2022/03/12 08:37:55;;;;;;;4.80;3.03;;;;;;;;;;5093166;28;20672;-54
2022/03/12 08:40:25;;;;;;;3.92;2.78;;;;;;;;;;5074090;28;20081;-54
2022/03/12 08:42:51;;;;;;;3.63;2.40;;;;;;;;;;5070629;28;20385;-57
2022/03/12 08:45:18;;;;;;;4.70;3.10;;;;;;;;;;5091465;28;20115;-54
2022/03/12 08:47:44;;;;;;;3.72;2.75;;;;;;;;;;5092948;28;20381;-59
2022/03/12 08:50:11;;;;;;;4.22;3.03;;;;;;;;;;5075227;28;20024;-56
2022/03/12 08:52:38;;;;;;;4.65;3.00;;;;;;;;;;5088950;28;20036;-55
2022/03/12 08:55:06;;;;;;;8.10;5.63;;;;;;;;;;5079354;28;20020;-51
2022/03/12 08:57:32;;;;;;;10.23;6.00;;;;;;;;;;5084568;28;20053;-52
2022/03/12 08:59:58;;;;;;;11.93;6.88;;;;;;;;;;5079997;28;20512;-56
2022/03/12 09:02:24;;;;;;;10.57;6.70;;;;;;;;;;5082685;28;20071;-57
2022/03/12 09:04:51;;;;;;;9.63;7.18;;;;;;;;;;5080034;28;20492;-55
2022/03/12 09:07:18;;;;;;;12.55;7.45;;;;;;;;;;5082689;28;20078;-56
2022/03/12 09:09:44;;;;;;;11.98;6.28;;;;;;;;;;5083429;28;20381;-56
2022/03/12 09:12:10;;;;;;;12.82;6.72;;;;;;;;;;5081877;28;20027;-55
2022/03/12 09:14:37;;;;;;;10.93;6.15;;;;;;;;;;5083038;28;20021;-54
2022/03/12 09:17:04;;;;;;;10.25;6.25;;;;;;;;;;5081622;28;20131;-56
2022/03/12 09:19:32;;;;;;;12.40;6.47;;;;;;;;;;5085680;28;20028;-56
2022/03/12 09:21:58;;;;;;;11.75;6.40;;;;;;;;;;5081719;28;20125;-56
2022/03/12 09:24:25;;;;;;;8.95;6.22;;;;;;;;;;5082028;28;20086;-57
2022/03/12 09:26:51;;;;;;;10.45;6.70;;;;;;;;;;5064582;28;20518;-55
2022/03/12 09:29:17;;;;;;;9.48;6.93;;;;;;;;;;5082191;28;20074;-56
2022/03/12 09:31:43;;;;;;;12.27;7.50;;;;;;;;;;5082392;28;20154;-51
2022/03/12 09:34:09;;;;;;;9.88;6.15;;;;;;;;;;5062739;28;20032;-50
2022/03/12 09:36:36;;;;;;;10.57;6.43;;;;;;;;;;5082107;28;20024;-56
2022/03/12 09:39:03;;;;;;;7.68;5.60;;;;;;;;;;5080931;28;20028;-50
2022/03/12 09:41:29;;;;;;;10.40;5.57;;;;;;;;;;5077741;28;20039;-53
2022/03/12 09:43:56;;;;;;;6.78;4.63;;;;;;;;;;5079765;28;20032;-49
2022/03/12 09:46:22;;;;;;;9.48;4.68;;;;;;;;;;5081981;28;20146;-49
2022/03/12 09:48:48;;;;;;;8.52;5.15;;;;;;;;;;5081328;28;20574;-50
2022/03/12 09:51:14;;;;;;;7.15;5.15;;;;;;;;;;5072521;28;20040;-49
2022/03/12 09:53:40;;;;;;;7.00;4.47;;;;;;;;;;5070711;28;20024;-51
2022/03/12 09:56:06;;;;;;;7.57;4.22;;;;;;;;;;5070956;28;20024;-52
2022/03/12 09:58:32;;;;;;;6.82;4.15;;;;;;;;;;5074389;28;20451;-49
2022/03/12 10:00:58;;;;;;;5.72;4.07;;;;;;;;;;5080158;28;20068;-48
2022/03/12 10:03:25;;;;;;;7.25;3.78;;;;;;;;;;5073699;28;20024;-50
2022/03/12 10:05:51;;;;;;;6.93;4.10;;;;;;;;;;5077032;28;20036;-52
2022/03/12 10:08:17;;;;;;;4.93;3.50;;;;;;;;;;5079212;28;20028;-51
2022/03/12 10:10:44;;;;;;;4.97;3.55;;;;;;;;;;5071073;28;20043;-53
2022/03/12 10:13:10;;;;;;;7.38;4.10;;;;;;;;;;5081475;28;20024;-52
2022/03/12 10:15:37;;;;;;;5.85;3.70;;;;;;;;;;5079333;28;20043;-52
2022/03/12 10:18:03;;;;;;;5.13;3.13;;;;;;;;;;5078188;28;20016;-55
2022/03/12 10:20:30;;;;;;;5.38;3.60;;;;;;;;;;5070796;28;20086;-58
2022/03/12 10:22:56;;;;;;;6.18;3.70;;;;;;;;;;5069727;28;20473;-55
2022/03/12 10:25:22;;;;;;;4.93;3.47;;;;;;;;;;5075286;28;20024;-58
2022/03/12 10:27:49;;;;;;;5.57;3.20;;;;;;;;;;5075309;28;20064;-58
2022/03/12 10:30:15;;;;;;;8.35;3.92;;;;;;;;;;5080394;28;20427;-59
2022/03/12 10:32:44;;;;;;;4.32;2.70;;;;;;;;;;5079232;28;20048;-58
2022/03/12 10:35:12;;;;;;;4.13;2.65;;;;;;;;;;5078195;28;20013;-60
2022/03/12 10:37:38;;;;;;;5.85;3.20;;;;;;;;;;5079233;28;20675;-57
2022/03/12 10:40:11;;;;;;;4.50;3.08;;;;;;;;;;5077621;28;20635;-59
2022/03/12 10:42:44;;;;;;;5.25;2.60;;;;;;;;;;5078165;28;20029;-57
2022/03/12 10:45:11;;;;;;;4.85;3.40;;;;;;;;;;5079005;28;20063;-57
2022/03/12 10:47:45;;;;;;;5.53;2.83;;;;;;;;;;5078824;28;20021;-56
2022/03/12 10:50:15;;;;;;;4.72;2.95;;;;;;;;;;5078285;28;20024;-57
2022/03/12 10:52:49;;;;;;;5.03;2.67;;;;;;;;;;5079472;28;20086;-58
2022/03/12 10:55:26;;;;;;;4.47;3.00;;;;;;;;;;5076318;28;20104;-58
2022/03/12 10:58:12;;;;;;;3.67;2.38;;;;;;;;;;5077788;28;20107;-58
2022/03/12 11:00:38;;;;;;;4.38;2.60;;;;;;;;;;5071068;28;20028;-58
2022/03/12 11:03:05;;;;;;;3.60;2.40;;;;;;;;;;5075016;28;20096;-54
2022/03/12 11:05:34;;;;;;;7.68;3.00;;;;;;;;;;5072701;28;20478;-60
2022/03/12 11:08:07;;;;;;;8.20;2.75;;;;;;;;;;5069495;28;20111;-57
2022/03/12 11:10:37;;;;;;;5.70;2.60;;;;;;;;;;5085508;28;20024;-56
2022/03/12 11:13:03;;;;;;;6.68;2.60;;;;;;;;;;5089756;28;20059;-56
2022/03/12 11:15:32;;;;;;;5.15;2.65;;;;;;;;;;5090186;28;20048;-56
2022/03/12 11:17:58;;;;;;;3.45;2.60;;;;;;;;;;5071795;28;20025;-52
2022/03/12 11:20:25;;;;;;;4.20;3.13;;;;;;;;;;5073888;28;20032;-57
2022/03/12 11:23:12;;;;;;;7.80;3.33;;;;;;;;;;5073391;28;20373;-56
2022/03/12 11:25:56;;;;;;;6.97;2.70;;;;;;;;;;5090083;28;20032;-55
2022/03/12 11:28:23;;;;;;;5.57;2.97;;;;;;;;;;5089410;28;20047;-56
2022/03/12 11:30:50;;;;;;;5.50;2.58;;;;;;;;;;5069581;28;20037;-56
2022/03/12 11:33:17;;;;;;;6.13;2.60;;;;;;;;;;5070226;28;20037;-57
2022/03/12 11:35:44;;;;;;;4.40;2.47;;;;;;;;;;5087905;28;20448;-55
2022/03/12 11:38:18;;;;;;;3.38;2.22;;;;;;;;;;5090362;28;20024;-56
2022/03/12 11:40:52;;;;;;;3.05;2.30;;;;;;;;;;5089433;28;20077;-56
2022/03/12 11:43:26;;;;;;;4.00;1.90;;;;;;;;;;5093052;28;20028;-56
2022/03/12 11:45:55;;;;;;;3.88;2.10;;;;;;;;;;5073415;28;20025;-55
2022/03/12 11:48:21;;;;;;;3.88;2.33;;;;;;;;;;5075511;28;20073;-56
2022/03/12 11:50:47;;;;;;;4.00;2.47;;;;;;;;;;5092952;28;20372;-56
2022/03/12 11:53:17;;;;;;;3.80;2.60;;;;;;;;;;5092560;28;20032;-56
2022/03/12 11:55:47;;;;;;;4.10;2.03;;;;;;;;;;5055333;28;20488;-56
2022/03/12 11:58:13;;;;;;;4.03;2.67;;;;;;;;;;5074768;28;20025;-57
2022/03/12 12:00:39;;;;;;;3.38;2.47;;;;;;;;;;5093458;28;20028;-56
2022/03/12 12:03:06;;;;;;;3.15;2.10;;;;;;;;;;5079897;28;20025;-55
2022/03/12 12:05:33;;;;;;;4.43;2.83;;;;;;;;;;5073255;28;20496;-57
2022/03/12 12:07:59;;;;;;;3.72;2.70;;;;;;;;;;5072603;28;20107;-56
2022/03/12 12:10:30;;;;;;;3.95;2.70;;;;;;;;;;5092893;28;20140;-55
2022/03/12 12:12:57;;;;;;;3.42;2.15;;;;;;;;;;5092657;28;20028;-57
2022/03/12 12:15:29;;;;;;;4.72;2.50;;;;;;;;;;5093364;28;20131;-56
2022/03/12 12:17:55;;;;;;;;;;;;;;;;;;5092828;28;20032;-55
2022/03/12 12:20:21;;;;;;;3.95;2.42;;;;;;;;;;5092251;28;19934;-53
2022/03/12 12:22:48;;;;;;;4.65;2.10;;;;;;;;;;5092757;28;20024;-56
2022/03/12 12:25:15;;;;;;;2.85;2.20;;;;;;;;;;5093018;28;20025;-58
2022/03/12 12:27:52;;;;;;;3.45;2.40;;;;;;;;;;5093222;28;20350;-57
2022/03/12 12:30:42;;;;;;;3.80;2.00;;;;;;;;;;5092446;28;20063;-56
2022/03/12 12:33:17;;;;;;;3.10;2.08;;;;;;;;;;5087970;28;20036;-57
2022/03/12 12:35:44;;;;;;;4.43;2.30;;;;;;;;;;5091874;28;20024;-56
2022/03/12 12:38:11;;;;;;;3.28;2.00;;;;;;;;;;5091645;28;20032;-56
2022/03/12 12:40:37;;;;;;;4.88;2.55;;;;;;;;;;5092557;28;20021;-56
2022/03/12 12:43:09;;;;;;;4.65;2.33;;;;;;;;;;5084809;28;20051;-56
2022/03/12 12:45:36;;;;;;;2.35;1.70;;;;;;;;;;5092278;28;20043;-56
2022/03/12 12:48:17;;;;;;;2.30;1.90;;;;;;;;;;5092056;28;20020;-56
2022/03/12 12:51:01;;;;;;;5.63;2.17;;;;;;;;;;5092709;28;20020;-56
2022/03/12 12:53:31;;;;;;;4.43;2.10;;;;;;;;;;5090994;28;20070;-55
2022/03/12 12:56:19;;;;;;;2.88;2.03;;;;;;;;;;5091170;28;20354;-55
2022/03/12 12:58:54;;;;;;;2.75;1.90;;;;;;;;;;5078567;28;20063;-56
2022/03/12 13:01:22;;;;;;;4.90;2.47;;;;;;;;;;5081103;28;20153;-53
2022/03/12 13:03:49;;;;;;;3.05;2.10;;;;;;;;;;5090526;28;20107;-54
2022/03/12 13:06:34;;;;;;;4.30;2.35;;;;;;;;;;5084011;28;20020;-54
2022/03/12 13:09:02;;;;;;;3.17;2.13;;;;;;;;;;5071071;28;20028;-54
2022/03/12 13:11:29;;;;;;;2.92;1.75;;;;;;;;;;5081482;28;20486;-56
2022/03/12 13:13:59;;;;;;;3.88;2.22;;;;;;;;;;5091582;28;20365;-56
2022/03/12 13:16:25;;;;;;;4.10;2.58;;;;;;;;;;5091306;28;20573;-59
2022/03/12 13:18:51;;;;;;;8.23;2.88;;;;;;;;;;5080930;28;20555;-55
2022/03/12 13:21:27;;;;;;;4.45;2.20;;;;;;;;;;5071898;28;20025;-54
2022/03/12 13:23:54;;;;;;;3.20;2.10;;;;;;;;;;5071039;28;20024;-53
2022/03/12 13:26:20;;;;;;;5.13;2.38;;;;;;;;;;5071533;28;20025;-52
2022/03/12 13:28:49;;;;;;;3.80;1.90;;;;;;;;;;5072509;28;20029;-52
2022/03/12 13:31:17;;;;;;;6.22;2.30;;;;;;;;;;5084740;28;20055;-57
2022/03/12 13:33:43;;;;;;;2.90;2.10;;;;;;;;;;5091617;28;20027;-57
2022/03/12 13:36:23;;;;;;;4.78;2.22;;;;;;;;;;5091392;28;20030;-56
2022/03/12 13:38:51;;;;;;;5.65;2.10;;;;;;;;;;5091049;28;20021;-57
2022/03/12 13:41:18;;;;;;;6.32;2.55;;;;;;;;;;5091752;28;20024;-54
2022/03/12 13:43:45;;;;;;;4.40;2.40;;;;;;;;;;5079047;28;20016;-61
2022/03/12 13:46:12;;;;;;;5.53;2.42;;;;;;;;;;5079821;28;20032;-59
2022/03/12 13:48:38;;;;;;;4.68;1.90;;;;;;;;;;5071798;28;20428;-47
2022/03/12 13:51:04;;;;;;;5.80;3.15;;;;;;;;;;5070450;28;20021;-55
2022/03/12 13:53:30;;;;;;;4.18;2.90;;;;;;;;;;5071266;28;20017;-51
2022/03/12 13:56:04;;;;;;;4.43;2.28;;;;;;;;;;5088287;28;20028;-55
2022/03/12 13:58:30;;;;;;;6.00;2.60;;;;;;;;;;5091491;28;20020;-54
2022/03/12 14:00:59;;;;;;;4.15;3.35;;;;;;;;;;5090347;28;20027;-56
2022/03/12 14:03:29;;;;;;;5.35;4.20;;;;;;;;;;5091317;28;20035;-54
2022/03/12 14:05:55;;;;;;;6.90;3.97;;;;;;;;;;5090194;28;20028;-56
2022/03/12 14:08:28;;;;;;;7.32;3.92;;;;;;;;;;5071888;28;20599;-55
2022/03/12 14:10:55;;;;;;;5.90;4.70;;;;;;;;;;5075393;28;20063;-55
2022/03/12 14:13:21;;;;;;;6.53;3.97;;;;;;;;;;5090476;28;20054;-55
2022/03/12 14:15:47;;;;;;;5.40;3.88;;;;;;;;;;5072394;28;20054;-54
2022/03/12 14:18:25;;;;;;;6.70;4.20;;;;;;;;;;5087246;28;20066;-56
2022/03/12 14:20:51;;;;;;;5.55;3.78;;;;;;;;;;5060488;28;20028;-51
2022/03/12 14:23:23;;;;;;;8.40;4.47;;;;;;;;;;5087107;28;20508;-55
2022/03/12 14:25:50;;;;;;;;;;;;;;;;;;5070662;28;20142;-50
2022/03/12 14:28:16;;;;;;;5.43;3.95;;;;;;;;;;5070664;28;19908;-55
2022/03/12 14:30:42;;;;;;;6.85;4.35;;;;;;;;;;5077089;28;20350;-55
2022/03/12 14:33:09;;;;;;;6.00;2.75;;;;;;;;;;5089928;28;20050;-55
2022/03/12 14:35:35;;;;;;;5.22;3.90;;;;;;;;;;5090666;28;20032;-55
2022/03/12 14:38:02;;;;;;;9.05;4.63;;;;;;;;;;5089836;28;20421;-56
2022/03/12 14:40:28;;;;;;;7.50;4.55;;;;;;;;;;5072440;28;20412;-55
2022/03/12 14:42:55;;;;;;;5.50;4.18;;;;;;;;;;5089553;28;20137;-55
2022/03/12 14:45:23;;;;;;;6.65;4.05;;;;;;;;;;5073446;28;20062;-56
2022/03/12 14:47:49;;;;;;;6.40;4.10;;;;;;;;;;5070076;28;20107;-49